Time;durP1;ratioP1;P1;durP2;ratioP2;P2;SDS_P1;SDS_P2;PMS_P1;PMS_P2;Temp;Humidity;BMP_temperature;BMP_pressure;BME280_temperature;BME280_humidity;BME280_pressure;Samples;Min_cycle;Max_cycle;Signal;HPM_P1;HPM_P2
2023/04/24 00:00:09;;;;;;;1.63;0.50;;;;;;;;;;523365;28;1095;-76
2023/04/24 00:00:24;;;;;;;1.40;0.60;;;;;;;;;;522293;28;1336;-76
2023/04/24 00:00:40;;;;;;;1.33;0.60;;;;;;;;;;521871;28;1219;-76
2023/04/24 00:00:56;;;;;;;1.85;0.57;;;;;;;;;;521944;28;1003;-76
2023/04/24 00:01:12;;;;;;;2.50;0.60;;;;;;;;;;523615;28;1216;-76
2023/04/24 00:01:29;;;;;;;1.95;0.60;;;;;;;;;;523047;28;1266;-75
2023/04/24 00:01:44;;;;;;;1.90;0.60;;;;;;;;;;524506;28;1149;-76
2023/04/24 00:02:00;;;;;;;2.15;0.50;;;;;;;;;;525028;28;1248;-75
2023/04/24 00:02:16;;;;;;;1.83;0.50;;;;;;;;;;524853;27;1000;-76
2023/04/24 00:02:32;;;;;;;1.30;0.60;;;;;;;;;;528357;27;1249;-76
2023/04/24 00:02:47;;;;;;;1.90;0.55;;;;;;;;;;527780;27;1366;-75
2023/04/24 00:03:03;;;;;;;2.67;0.50;;;;;;;;;;527611;27;1214;-75
2023/04/24 00:03:20;;;;;;;2.20;0.53;;;;;;;;;;526824;28;1210;-75
2023/04/24 00:03:36;;;;;;;2.17;0.60;;;;;;;;;;525664;28;1438;-76
2023/04/24 00:03:52;;;;;;;2.03;0.60;;;;;;;;;;525578;28;1229;-76
2023/04/24 00:04:10;;;;;;;1.70;0.50;;;;;;;;;;524013;28;1319;-75
2023/04/24 00:04:25;;;;;;;2.28;0.60;;;;;;;;;;522561;28;1266;-75
2023/04/24 00:04:44;;;;;;;1.67;0.67;;;;;;;;;;521022;28;1156;-76
2023/04/24 00:05:02;;;;;;;1.15;0.60;;;;;;;;;;521808;28;1079;-76
2023/04/24 00:05:17;;;;;;;1.55;0.50;;;;;;;;;;521518;28;1395;-75
2023/04/24 00:05:33;;;;;;;1.55;0.50;;;;;;;;;;522463;28;1373;-76
2023/04/24 00:05:49;;;;;;;2.00;0.60;;;;;;;;;;525510;28;1131;-75
2023/04/24 00:06:07;;;;;;;1.92;0.60;;;;;;;;;;525071;28;1218;-75
2023/04/24 00:06:23;;;;;;;1.80;0.60;;;;;;;;;;527265;27;1081;-75
2023/04/24 00:06:42;;;;;;;1.85;0.60;;;;;;;;;;525179;28;1230;-75
2023/04/24 00:06:59;;;;;;;0.95;0.50;;;;;;;;;;525169;28;1135;-75
2023/04/24 00:07:16;;;;;;;1.30;0.70;;;;;;;;;;523026;28;1127;-77
2023/04/24 00:07:32;;;;;;;1.35;0.70;;;;;;;;;;523291;28;1269;-75
2023/04/24 00:07:47;;;;;;;1.27;0.60;;;;;;;;;;524527;28;1152;-76
2023/04/24 00:08:02;;;;;;;1.63;0.60;;;;;;;;;;524178;28;1258;-75
2023/04/24 00:08:18;;;;;;;1.80;0.60;;;;;;;;;;523234;28;1345;-76
2023/04/24 00:08:36;;;;;;;1.48;0.50;;;;;;;;;;523959;28;1120;-76
2023/04/24 00:08:51;;;;;;;1.20;0.55;;;;;;;;;;522537;28;1313;-76
2023/04/24 00:09:07;;;;;;;1.03;0.57;;;;;;;;;;524906;28;1354;-76
2023/04/24 00:09:23;;;;;;;0.70;0.43;;;;;;;;;;518877;28;1236;-76
2023/04/24 00:09:38;;;;;;;0.73;0.50;;;;;;;;;;521109;28;1233;-75
2023/04/24 00:09:54;;;;;;;1.10;0.60;;;;;;;;;;518098;28;1429;-75
2023/04/24 00:10:09;;;;;;;2.27;0.60;;;;;;;;;;520350;28;978;-76
2023/04/24 00:10:24;;;;;;;3.03;0.60;;;;;;;;;;518781;28;1950;-76
2023/04/24 00:10:40;;;;;;;1.97;0.60;;;;;;;;;;521727;28;1082;-76
2023/04/24 00:10:56;;;;;;;1.40;0.70;;;;;;;;;;520956;28;1266;-76
2023/04/24 00:11:11;;;;;;;1.23;0.60;;;;;;;;;;521034;28;1243;-76
2023/04/24 00:11:27;;;;;;;1.48;0.50;;;;;;;;;;523985;28;1136;-76
2023/04/24 00:11:42;;;;;;;1.87;0.50;;;;;;;;;;523127;28;1363;-76
2023/04/24 00:11:57;;;;;;;1.70;0.50;;;;;;;;;;522778;28;1466;-75
2023/04/24 00:12:12;;;;;;;1.23;0.50;;;;;;;;;;518951;28;1246;-76
2023/04/24 00:12:30;;;;;;;1.40;0.53;;;;;;;;;;521949;28;1143;-76
2023/04/24 00:12:46;;;;;;;1.33;0.60;;;;;;;;;;520210;28;1113;-76
2023/04/24 00:13:01;;;;;;;1.40;0.53;;;;;;;;;;519246;28;1183;-76
2023/04/24 00:13:17;;;;;;;1.92;0.50;;;;;;;;;;521065;28;1129;-76
2023/04/24 00:13:32;;;;;;;1.50;0.50;;;;;;;;;;520929;28;1464;-76
2023/04/24 00:13:47;;;;;;;1.23;0.50;;;;;;;;;;520504;28;1310;-75
2023/04/24 00:14:03;;;;;;;1.43;0.50;;;;;;;;;;521388;28;1081;-76
2023/04/24 00:14:18;;;;;;;1.80;0.60;;;;;;;;;;523180;28;1174;-76
2023/04/24 00:14:34;;;;;;;1.60;0.60;;;;;;;;;;522114;28;1305;-76
2023/04/24 00:14:50;;;;;;;1.77;0.60;;;;;;;;;;523285;28;1450;-76
2023/04/24 00:15:06;;;;;;;1.75;0.50;;;;;;;;;;522100;28;1382;-76
2023/04/24 00:15:21;;;;;;;2.53;0.55;;;;;;;;;;521577;28;1258;-76
2023/04/24 00:15:36;;;;;;;2.90;0.60;;;;;;;;;;525041;28;1080;-76
2023/04/24 00:15:52;;;;;;;2.47;0.60;;;;;;;;;;524960;28;1652;-76
2023/04/24 00:16:07;;;;;;;1.97;0.57;;;;;;;;;;525667;28;1407;-76
2023/04/24 00:16:23;;;;;;;1.52;0.60;;;;;;;;;;524629;27;1124;-76
2023/04/24 00:16:38;;;;;;;1.92;0.60;;;;;;;;;;527225;27;1025;-76
2023/04/24 00:16:53;;;;;;;1.37;0.43;;;;;;;;;;524225;28;1482;-76
2023/04/24 00:17:09;;;;;;;0.70;0.47;;;;;;;;;;527098;27;1292;-76
2023/04/24 00:17:24;;;;;;;0.90;0.50;;;;;;;;;;525235;28;1293;-76
2023/04/24 00:17:40;;;;;;;1.57;0.50;;;;;;;;;;523055;28;1273;-76
2023/04/24 00:17:55;;;;;;;2.53;0.57;;;;;;;;;;519412;28;1327;-76
2023/04/24 00:18:10;;;;;;;2.08;0.50;;;;;;;;;;522607;28;1329;-76
2023/04/24 00:18:26;;;;;;;1.10;0.50;;;;;;;;;;520836;28;1145;-76
2023/04/24 00:18:41;;;;;;;1.67;0.60;;;;;;;;;;519105;28;1250;-77
2023/04/24 00:18:56;;;;;;;1.95;0.52;;;;;;;;;;523133;28;1195;-76
2023/04/24 00:19:14;;;;;;;1.73;0.50;;;;;;;;;;522438;28;1081;-77
2023/04/24 00:19:30;;;;;;;1.52;0.55;;;;;;;;;;523776;28;1097;-74
2023/04/24 00:19:46;;;;;;;1.30;0.60;;;;;;;;;;524666;28;1222;-75
2023/04/24 00:20:04;;;;;;;1.20;0.55;;;;;;;;;;522409;28;1420;-76
2023/04/24 00:20:19;;;;;;;1.35;0.50;;;;;;;;;;522813;28;1412;-76
2023/04/24 00:20:37;;;;;;;1.17;0.50;;;;;;;;;;523747;28;1198;-76
2023/04/24 00:20:52;;;;;;;1.25;0.50;;;;;;;;;;522513;28;1512;-76
2023/04/24 00:21:08;;;;;;;1.43;0.50;;;;;;;;;;522223;28;1144;-76
2023/04/24 00:21:25;;;;;;;1.55;0.50;;;;;;;;;;522405;28;1280;-76
2023/04/24 00:21:41;;;;;;;1.45;0.50;;;;;;;;;;525313;28;1544;-76
2023/04/24 00:21:56;;;;;;;2.08;0.50;;;;;;;;;;525962;28;1307;-76
2023/04/24 00:22:13;;;;;;;2.13;0.50;;;;;;;;;;523942;28;1309;-76
2023/04/24 00:22:28;;;;;;;1.23;0.50;;;;;;;;;;524012;28;982;-76
2023/04/24 00:22:43;;;;;;;1.80;0.53;;;;;;;;;;523819;28;1301;-76
2023/04/24 00:22:59;;;;;;;2.50;0.63;;;;;;;;;;523777;28;1175;-76
2023/04/24 00:23:14;;;;;;;1.77;0.50;;;;;;;;;;522722;28;1050;-76
2023/04/24 00:23:30;;;;;;;1.02;0.50;;;;;;;;;;523985;28;1206;-76
2023/04/24 00:23:45;;;;;;;1.63;0.60;;;;;;;;;;523677;28;1184;-76
2023/04/24 00:24:00;;;;;;;1.67;0.60;;;;;;;;;;527053;27;1136;-76
2023/04/24 00:24:17;;;;;;;1.80;0.50;;;;;;;;;;527569;27;1076;-76
2023/04/24 00:24:32;;;;;;;2.33;0.50;;;;;;;;;;525283;28;1328;-76
2023/04/24 00:24:48;;;;;;;2.03;0.40;;;;;;;;;;525134;28;1278;-76
2023/04/24 00:25:03;;;;;;;2.23;0.33;;;;;;;;;;523416;28;1207;-76
2023/04/24 00:25:18;;;;;;;1.55;0.30;;;;;;;;;;523868;28;1127;-76
2023/04/24 00:25:34;;;;;;;1.13;0.20;;;;;;;;;;525845;28;1363;-77
2023/04/24 00:25:49;;;;;;;1.25;0.30;;;;;;;;;;525487;28;1293;-75
2023/04/24 00:26:04;;;;;;;1.00;0.37;;;;;;;;;;523962;28;1425;-77
2023/04/24 00:26:20;;;;;;;1.20;0.30;;;;;;;;;;522537;28;1118;-77
2023/04/24 00:26:35;;;;;;;0.88;0.20;;;;;;;;;;523803;28;1128;-77
2023/04/24 00:26:50;;;;;;;0.63;0.20;;;;;;;;;;525339;28;1048;-76
2023/04/24 00:27:05;;;;;;;1.30;0.30;;;;;;;;;;525217;28;1096;-76
2023/04/24 00:27:21;;;;;;;1.60;0.33;;;;;;;;;;524161;28;1175;-76
2023/04/24 00:27:36;;;;;;;1.40;0.45;;;;;;;;;;523333;28;1253;-76
2023/04/24 00:27:52;;;;;;;1.33;0.50;;;;;;;;;;523380;28;1141;-76
2023/04/24 00:28:07;;;;;;;0.90;0.40;;;;;;;;;;522108;28;1181;-76
2023/04/24 00:28:22;;;;;;;0.83;0.30;;;;;;;;;;524300;28;1137;-76
2023/04/24 00:28:38;;;;;;;1.30;0.50;;;;;;;;;;523477;28;1202;-76
2023/04/24 00:28:53;;;;;;;1.83;0.47;;;;;;;;;;524854;28;1329;-76
2023/04/24 00:29:08;;;;;;;1.77;0.30;;;;;;;;;;524946;28;1151;-77
2023/04/24 00:29:24;;;;;;;1.30;0.27;;;;;;;;;;523620;28;1085;-76
2023/04/24 00:29:39;;;;;;;1.50;0.40;;;;;;;;;;523820;28;1136;-77
2023/04/24 00:29:54;;;;;;;1.90;0.30;;;;;;;;;;523707;28;1136;-76
2023/04/24 00:30:10;;;;;;;1.17;0.20;;;;;;;;;;521284;28;1638;-76
2023/04/24 00:30:25;;;;;;;0.63;0.20;;;;;;;;;;523326;28;1977;-76
2023/04/24 00:30:40;;;;;;;0.90;0.27;;;;;;;;;;521261;28;1167;-77
2023/04/24 00:30:56;;;;;;;1.50;0.20;;;;;;;;;;521735;28;1116;-76
2023/04/24 00:31:11;;;;;;;1.60;0.20;;;;;;;;;;524202;28;1245;-76
2023/04/24 00:31:26;;;;;;;1.37;0.20;;;;;;;;;;525846;28;1242;-76
2023/04/24 00:31:41;;;;;;;1.10;0.20;;;;;;;;;;526658;28;1343;-76
2023/04/24 00:31:57;;;;;;;0.80;0.10;;;;;;;;;;524901;28;1081;-76
2023/04/24 00:32:13;;;;;;;1.57;0.20;;;;;;;;;;520242;28;1097;-76
2023/04/24 00:32:28;;;;;;;1.60;0.30;;;;;;;;;;520945;28;1215;-76
2023/04/24 00:32:43;;;;;;;0.70;0.30;;;;;;;;;;521306;28;1340;-76
2023/04/24 00:32:58;;;;;;;0.57;0.20;;;;;;;;;;521757;28;1307;-76
2023/04/24 00:33:14;;;;;;;0.90;0.20;;;;;;;;;;521540;28;1184;-76
2023/04/24 00:33:30;;;;;;;0.90;0.20;;;;;;;;;;522404;28;1259;-76
2023/04/24 00:33:45;;;;;;;0.70;0.10;;;;;;;;;;523413;28;1212;-77
2023/04/24 00:34:02;;;;;;;0.50;0.10;;;;;;;;;;524339;28;1148;-77
2023/04/24 00:34:18;;;;;;;0.47;0.20;;;;;;;;;;526293;28;1076;-76
2023/04/24 00:34:33;;;;;;;0.30;0.20;;;;;;;;;;526264;28;1215;-76
2023/04/24 00:34:48;;;;;;;0.83;0.10;;;;;;;;;;526704;28;1175;-75
2023/04/24 00:35:07;;;;;;;1.10;0.10;;;;;;;;;;528898;27;1146;-75
2023/04/24 00:35:23;;;;;;;0.63;0.17;;;;;;;;;;529918;27;1108;-76
2023/04/24 00:35:38;;;;;;;0.77;0.20;;;;;;;;;;528025;27;1360;-77
2023/04/24 00:35:53;;;;;;;0.70;0.10;;;;;;;;;;527909;27;1301;-77
2023/04/24 00:36:09;;;;;;;0.37;0.10;;;;;;;;;;526142;28;1080;-77
2023/04/24 00:36:24;;;;;;;0.80;0.20;;;;;;;;;;524859;28;1246;-77
2023/04/24 00:36:40;;;;;;;2.03;0.20;;;;;;;;;;525961;28;1209;-76
2023/04/24 00:36:55;;;;;;;1.77;0.20;;;;;;;;;;523571;28;1363;-76
2023/04/24 00:37:11;;;;;;;0.80;0.17;;;;;;;;;;525289;28;1275;-77
2023/04/24 00:37:26;;;;;;;0.82;0.10;;;;;;;;;;525493;28;1127;-77
2023/04/24 00:37:42;;;;;;;1.60;0.20;;;;;;;;;;526022;28;1041;-77
2023/04/24 00:37:57;;;;;;;1.45;0.20;;;;;;;;;;523768;28;1228;-76
2023/04/24 00:38:12;;;;;;;0.80;0.10;;;;;;;;;;522346;28;1196;-78
2023/04/24 00:38:27;;;;;;;0.93;0.20;;;;;;;;;;523469;28;1184;-77
2023/04/24 00:38:43;;;;;;;1.10;0.10;;;;;;;;;;521702;28;1324;-76
2023/04/24 00:38:58;;;;;;;1.23;0.10;;;;;;;;;;521881;28;1272;-78
2023/04/24 00:39:13;;;;;;;0.60;0.10;;;;;;;;;;521794;28;1320;-76
2023/04/24 00:39:29;;;;;;;0.40;0.10;;;;;;;;;;521587;28;1216;-76
2023/04/24 00:39:44;;;;;;;0.80;0.20;;;;;;;;;;522195;28;1165;-76
2023/04/24 00:39:59;;;;;;;0.50;0.10;;;;;;;;;;522383;28;1212;-77
2023/04/24 00:40:15;;;;;;;0.68;0.10;;;;;;;;;;521198;28;1354;-77
2023/04/24 00:40:30;;;;;;;0.80;0.20;;;;;;;;;;522692;28;977;-77
2023/04/24 00:40:47;;;;;;;0.53;0.20;;;;;;;;;;522228;28;1182;-76
2023/04/24 00:41:02;;;;;;;0.70;0.20;;;;;;;;;;524698;28;1104;-77
2023/04/24 00:41:18;;;;;;;0.28;0.20;;;;;;;;;;524066;28;1334;-76
2023/04/24 00:41:33;;;;;;;0.30;0.10;;;;;;;;;;524027;28;1116;-76
2023/04/24 00:41:49;;;;;;;0.40;0.10;;;;;;;;;;523854;28;1301;-76
2023/04/24 00:42:06;;;;;;;0.30;0.10;;;;;;;;;;524720;28;1339;-76
2023/04/24 00:42:21;;;;;;;0.30;0.10;;;;;;;;;;524506;28;1405;-77
2023/04/24 00:42:37;;;;;;;0.52;0.10;;;;;;;;;;523741;28;1353;-76
2023/04/24 00:42:52;;;;;;;0.47;0.10;;;;;;;;;;523952;28;1136;-76
2023/04/24 00:43:07;;;;;;;0.50;0.13;;;;;;;;;;521326;28;1299;-77
2023/04/24 00:43:23;;;;;;;0.50;0.20;;;;;;;;;;518651;28;1294;-76
2023/04/24 00:43:39;;;;;;;0.40;0.13;;;;;;;;;;521936;28;1225;-77
2023/04/24 00:43:54;;;;;;;0.50;0.20;;;;;;;;;;521972;28;1148;-76
2023/04/24 00:44:10;;;;;;;1.15;0.20;;;;;;;;;;520193;28;1476;-77
2023/04/24 00:44:25;;;;;;;1.03;0.20;;;;;;;;;;517890;28;1201;-76
2023/04/24 00:44:40;;;;;;;0.47;0.10;;;;;;;;;;519469;28;1108;-75
2023/04/24 00:44:56;;;;;;;0.60;0.10;;;;;;;;;;517149;28;1108;-77
2023/04/24 00:45:12;;;;;;;0.63;0.20;;;;;;;;;;522451;28;1092;-76
2023/04/24 00:45:27;;;;;;;0.30;0.10;;;;;;;;;;524561;28;1171;-76
2023/04/24 00:45:43;;;;;;;0.60;0.13;;;;;;;;;;524690;28;1387;-78
2023/04/24 00:45:59;;;;;;;0.80;0.20;;;;;;;;;;521750;28;1318;-77
2023/04/24 00:46:16;;;;;;;0.70;0.15;;;;;;;;;;522026;28;1613;-77
2023/04/24 00:46:31;;;;;;;0.52;0.10;;;;;;;;;;522291;28;1651;-77
2023/04/24 00:46:51;;;;;;;0.55;0.10;;;;;;;;;;522314;28;1227;-77
2023/04/24 00:47:07;;;;;;;0.38;0.20;;;;;;;;;;522262;28;1137;-76
2023/04/24 00:47:25;;;;;;;0.20;0.10;;;;;;;;;;521474;28;1280;-76
2023/04/24 00:47:41;;;;;;;0.63;0.10;;;;;;;;;;523116;28;1374;-77
2023/04/24 00:47:57;;;;;;;0.90;0.10;;;;;;;;;;522805;28;966;-76
2023/04/24 00:48:13;;;;;;;0.85;0.20;;;;;;;;;;523951;28;1408;-76
2023/04/24 00:48:28;;;;;;;0.60;0.20;;;;;;;;;;523073;28;1283;-75
2023/04/24 00:48:44;;;;;;;0.40;0.20;;;;;;;;;;520540;28;1271;-76
2023/04/24 00:48:59;;;;;;;0.70;0.20;;;;;;;;;;520638;28;1354;-75
2023/04/24 00:49:14;;;;;;;1.20;0.20;;;;;;;;;;521320;28;1187;-76
2023/04/24 00:49:30;;;;;;;1.00;0.20;;;;;;;;;;522444;28;1212;-76
2023/04/24 00:49:45;;;;;;;0.83;0.20;;;;;;;;;;521899;28;1064;-76
2023/04/24 00:50:05;;;;;;;0.82;0.20;;;;;;;;;;522247;28;1093;-76
2023/04/24 00:50:21;;;;;;;0.28;0.20;;;;;;;;;;523018;28;1912;-77
2023/04/24 00:50:38;;;;;;;0.30;0.13;;;;;;;;;;524602;28;1290;-77
2023/04/24 00:50:53;;;;;;;0.40;0.10;;;;;;;;;;523414;28;1282;-76
2023/04/24 00:51:09;;;;;;;0.30;0.10;;;;;;;;;;523227;28;1021;-76
2023/04/24 00:51:24;;;;;;;0.13;0.10;;;;;;;;;;523257;28;1307;-76
2023/04/24 00:51:40;;;;;;;0.32;0.10;;;;;;;;;;522055;28;1231;-77
2023/04/24 00:51:56;;;;;;;0.40;0.17;;;;;;;;;;522760;28;1346;-76
2023/04/24 00:52:12;;;;;;;0.47;0.15;;;;;;;;;;520713;28;1450;-76
2023/04/24 00:52:28;;;;;;;0.67;0.20;;;;;;;;;;519491;28;1254;-76
2023/04/24 00:52:44;;;;;;;0.50;0.13;;;;;;;;;;519781;28;1420;-76
2023/04/24 00:52:59;;;;;;;1.10;0.20;;;;;;;;;;520536;28;1102;-77
2023/04/24 00:53:14;;;;;;;1.00;0.10;;;;;;;;;;518498;28;1449;-76
2023/04/24 00:53:29;;;;;;;0.47;0.10;;;;;;;;;;521001;28;1381;-76
2023/04/24 00:53:46;;;;;;;1.30;0.10;;;;;;;;;;520664;28;1306;-76
2023/04/24 00:54:01;;;;;;;1.17;0.10;;;;;;;;;;520556;28;1379;-76
2023/04/24 00:54:18;;;;;;;0.33;0.10;;;;;;;;;;523290;28;1296;-76
2023/04/24 00:54:33;;;;;;;0.28;0.10;;;;;;;;;;524449;28;1282;-75
2023/04/24 00:54:48;;;;;;;0.52;0.10;;;;;;;;;;523954;28;1262;-76
2023/04/24 00:55:05;;;;;;;0.70;0.10;;;;;;;;;;522247;28;1216;-77
2023/04/24 00:55:20;;;;;;;0.45;0.20;;;;;;;;;;521839;28;1375;-76
2023/04/24 00:55:37;;;;;;;0.70;0.20;;;;;;;;;;523021;28;1195;-76
2023/04/24 00:55:52;;;;;;;0.85;0.20;;;;;;;;;;521510;28;1405;-76
2023/04/24 00:56:07;;;;;;;0.60;0.20;;;;;;;;;;522671;28;1215;-76
2023/04/24 00:56:23;;;;;;;0.40;0.20;;;;;;;;;;519835;28;1264;-76
2023/04/24 00:56:40;;;;;;;0.40;0.10;;;;;;;;;;519378;28;1342;-76
2023/04/24 00:56:56;;;;;;;0.80;0.20;;;;;;;;;;520011;28;1181;-77
2023/04/24 00:57:14;;;;;;;0.80;0.20;;;;;;;;;;521968;28;1107;-76
2023/04/24 00:57:30;;;;;;;0.40;0.10;;;;;;;;;;522896;28;1360;-76
2023/04/24 00:57:46;;;;;;;0.65;0.10;;;;;;;;;;522526;28;1372;-76
2023/04/24 00:58:02;;;;;;;0.45;0.10;;;;;;;;;;521810;28;1132;-76
2023/04/24 00:58:17;;;;;;;0.17;0.00;;;;;;;;;;524653;28;1120;-76
2023/04/24 00:58:33;;;;;;;0.60;0.10;;;;;;;;;;523976;28;1376;-76
2023/04/24 00:58:49;;;;;;;0.60;0.20;;;;;;;;;;522508;28;1231;-75
2023/04/24 00:59:07;;;;;;;0.63;0.20;;;;;;;;;;522366;28;1571;-77
2023/04/24 00:59:23;;;;;;;0.77;0.20;;;;;;;;;;522575;28;1331;-76
2023/04/24 00:59:45;;;;;;;1.00;0.20;;;;;;;;;;499585;28;1492;-77
2023/04/24 01:00:05;;;;;;;0.80;0.17;;;;;;;;;;488382;28;1202;-76
2023/04/24 01:01:02;;;;;;;1.00;0.20;;;;;;;;;;492734;28;1282;-76
2023/04/24 01:01:07;;;;;;;1.60;0.20;;;;;;;;;;490058;28;1104;-76
2023/04/24 01:02:46;;;;;;;0.40;0.20;;;;;;;;;;495752;28;1323;-76
2023/04/24 01:03:11;;;;;;;0.57;0.20;;;;;;;;;;479444;28;1129;-76
2023/04/24 01:05:36;;;;;;;0.80;0.20;;;;;;;;;;478072;29;1300;-77
2023/04/24 01:10:27;;;;;;;0.90;0.20;;;;;;;;;;467751;29;996;-76
2023/04/24 01:11:41;;;;;;;0.52;0.20;;;;;;;;;;462794;29;1166;-76
2023/04/24 01:12:18;;;;;;;0.43;0.17;;;;;;;;;;457388;30;1612;-77
2023/04/24 01:14:46;;;;;;;0.90;0.20;;;;;;;;;;459258;29;1367;-76
2023/04/24 01:20:46;;;;;;;;;;;;;;;;;;;;;
2023/04/24 01:34:56;;;;;;;1.58;0.30;;;;;;;;;;481768;28;1510;-77
2023/04/24 01:52:57;;;;;;;0.92;0.41;;;;;;;;;;1035665;27;21725;-77
2023/04/24 01:53:12;;;;;;;0.38;0.30;;;;;;;;;;524190;28;1345;-76
2023/04/24 01:53:27;;;;;;;0.73;0.30;;;;;;;;;;522176;28;1288;-76
2023/04/24 01:53:43;;;;;;;0.93;0.40;;;;;;;;;;520383;28;1358;-76
2023/04/24 01:53:58;;;;;;;0.60;0.40;;;;;;;;;;519474;28;1187;-77
2023/04/24 01:54:13;;;;;;;0.70;0.43;;;;;;;;;;518243;28;1512;-76
2023/04/24 01:54:29;;;;;;;1.07;0.40;;;;;;;;;;517340;28;1164;-76
2023/04/24 01:54:44;;;;;;;1.20;0.40;;;;;;;;;;517623;28;1176;-76
2023/04/24 01:55:00;;;;;;;0.80;0.38;;;;;;;;;;519366;28;1364;-76
2023/04/24 01:55:15;;;;;;;0.50;0.32;;;;;;;;;;518158;28;1474;-76
2023/04/24 01:55:31;;;;;;;0.87;0.30;;;;;;;;;;516936;28;1497;-76
2023/04/24 01:55:46;;;;;;;1.05;0.40;;;;;;;;;;515476;28;1512;-76
2023/04/24 01:56:02;;;;;;;0.67;0.40;;;;;;;;;;517928;28;1205;-77
2023/04/24 01:56:19;;;;;;;1.27;0.40;;;;;;;;;;519732;28;1223;-76
2023/04/24 01:56:36;;;;;;;1.20;0.40;;;;;;;;;;517367;28;1442;-76
2023/04/24 01:56:54;;;;;;;0.50;0.35;;;;;;;;;;503924;28;1287;-75
2023/04/24 02:00:32;;;;;;;;;;;;;;;;;;;;;
2023/04/24 02:01:20;;;;;;;0.98;0.60;;;;;;;;;;469253;29;1205;-77
2023/04/24 02:02:16;;;;;;;0.93;0.40;;;;;;;;;;476885;28;1124;-76
2023/04/24 02:02:51;;;;;;;0.57;0.45;;;;;;;;;;487446;28;1135;-76
2023/04/24 02:05:00;;;;;;;;;;;;;;;;;;;;;
2023/04/24 02:06:43;;;;;;;1.10;0.40;;;;;;;;;;468674;29;1106;-76
2023/04/24 02:10:16;;;;;;;1.30;0.60;;;;;;;;;;466886;29;1336;-77
2023/04/24 02:12:20;;;;;;;0.76;0.46;;;;;;;;;;1042879;27;21253;-75
2023/04/24 02:12:36;;;;;;;1.42;0.52;;;;;;;;;;529189;27;1024;-75
2023/04/24 02:12:51;;;;;;;1.33;0.60;;;;;;;;;;527410;28;1257;-76
2023/04/24 02:13:10;;;;;;;1.17;0.60;;;;;;;;;;526324;28;1264;-76
2023/04/24 02:13:25;;;;;;;0.90;0.60;;;;;;;;;;524727;28;1391;-75
2023/04/24 02:13:40;;;;;;;1.20;0.60;;;;;;;;;;525894;28;1213;-75
2023/04/24 02:13:55;;;;;;;2.10;0.63;;;;;;;;;;525795;28;1120;-76
2023/04/24 02:14:11;;;;;;;2.60;0.70;;;;;;;;;;526157;28;1282;-76
2023/04/24 02:14:26;;;;;;;1.63;0.57;;;;;;;;;;525559;28;1301;-77
2023/04/24 02:14:42;;;;;;;0.80;0.50;;;;;;;;;;524629;28;1241;-75
2023/04/24 02:14:57;;;;;;;1.03;0.60;;;;;;;;;;523559;28;1263;-75
2023/04/24 02:15:12;;;;;;;1.40;0.60;;;;;;;;;;522866;28;1353;-75
2023/04/24 02:15:28;;;;;;;1.70;0.60;;;;;;;;;;522055;28;1095;-76
2023/04/24 02:15:43;;;;;;;1.57;0.60;;;;;;;;;;522179;28;1159;-75
2023/04/24 02:15:58;;;;;;;1.45;0.50;;;;;;;;;;523001;28;1215;-75
2023/04/24 02:16:14;;;;;;;1.63;0.50;;;;;;;;;;514420;28;1300;-74
2023/04/24 02:16:35;;;;;;;0.93;0.43;;;;;;;;;;480976;28;1227;-76
2023/04/24 02:17:02;;;;;;;0.73;0.50;;;;;;;;;;486949;28;1220;-76
2023/04/24 02:23:17;;;;;;;1.42;0.55;;;;;;;;;;476253;29;1771;-76
2023/04/24 02:25:22;;;;;;;0.63;0.63;;;;;;;;;;458819;29;1830;-75
2023/04/24 02:28:08;;;;;;;1.98;0.60;;;;;;;;;;460703;30;1334;-76
2023/04/24 02:29:55;;;;;;;2.40;0.60;;;;;;;;;;445615;30;1661;-76
2023/04/24 02:30:54;;;;;;;1.55;0.60;;;;;;;;;;452489;30;1851;-77
2023/04/24 02:31:33;;;;;;;;;;;;;;;;;;;;;
2023/04/24 02:32:57;;;;;;;1.58;0.77;;;;;;;;;;452538;30;2450;-76
2023/04/24 02:33:59;;;;;;;0.93;0.85;;;;;;;;;;511362;27;20597;-76
2023/04/24 02:34:16;;;;;;;1.02;0.80;;;;;;;;;;532494;27;1253;-76
2023/04/24 02:34:31;;;;;;;1.30;0.80;;;;;;;;;;530018;27;1300;-76
2023/04/24 02:34:46;;;;;;;1.20;0.70;;;;;;;;;;528959;27;1198;-76
2023/04/24 02:35:02;;;;;;;1.40;0.70;;;;;;;;;;528247;27;1080;-76
2023/04/24 02:35:17;;;;;;;1.80;0.70;;;;;;;;;;526482;28;1052;-76
2023/04/24 02:35:32;;;;;;;1.97;0.77;;;;;;;;;;525241;28;1398;-76
2023/04/24 02:35:47;;;;;;;1.50;0.70;;;;;;;;;;523347;28;1291;-78
2023/04/24 02:36:03;;;;;;;1.63;0.73;;;;;;;;;;523693;28;1461;-76
2023/04/24 02:36:18;;;;;;;1.37;0.70;;;;;;;;;;524874;28;1265;-76
2023/04/24 02:36:34;;;;;;;1.35;0.63;;;;;;;;;;526064;28;1457;-77
2023/04/24 02:36:49;;;;;;;1.67;0.67;;;;;;;;;;525885;28;1290;-77
2023/04/24 02:37:05;;;;;;;1.63;0.60;;;;;;;;;;526732;27;1103;-76
2023/04/24 02:37:20;;;;;;;2.75;0.68;;;;;;;;;;528574;27;969;-77
2023/04/24 02:37:35;;;;;;;2.87;0.73;;;;;;;;;;527676;28;1316;-76
2023/04/24 02:37:51;;;;;;;1.13;0.68;;;;;;;;;;526906;28;1439;-76
2023/04/24 02:38:06;;;;;;;1.30;0.70;;;;;;;;;;525298;28;1308;-76
2023/04/24 02:38:27;;;;;;;1.40;0.80;;;;;;;;;;501553;28;1222;-76
2023/04/24 02:45:34;;;;;;;;;;;;;;;;;;;;;
2023/04/24 02:49:17;;;;;;;;;;;;;;;;;;;;;
2023/04/24 02:53:31;;;;;;;1.70;0.80;;;;;;;;;;464544;29;1206;-77
2023/04/24 02:54:36;;;;;;;1.40;0.80;;;;;;;;;;464600;29;1163;-76
2023/04/24 02:55:10;;;;;;;;;;;;;;;;;;;;;
2023/04/24 02:55:56;;;;;;;1.27;0.70;;;;;;;;;;455824;30;1070;-76
2023/04/24 02:58:36;;;;;;;1.40;0.75;;;;;;;;;;456055;29;1360;-76
2023/04/24 02:59:33;;;;;;;1.55;0.80;;;;;;;;;;453018;29;1272;-77
2023/04/24 03:00:23;;;;;;;;;;;;;;;;;;;;;
2023/04/24 03:07:37;;;;;;;1.15;0.80;;;;;;;;;;459107;29;1163;-76
2023/04/24 03:08:27;;;;;;;1.40;0.80;;;;;;;;;;458149;29;1801;-76
2023/04/24 03:12:07;;;;;;;1.73;0.70;;;;;;;;;;461821;29;1467;-74
2023/04/24 03:17:45;;;;;;;1.73;0.93;;;;;;;;;;461826;29;1232;-76
2023/04/24 03:27:20;;;;;;;1.88;1.00;;;;;;;;;;460263;29;1879;-77
2023/04/24 03:28:08;;;;;;;2.28;1.00;;;;;;;;;;470445;29;1346;-76
2023/04/24 03:29:59;;;;;;;;;;;;;;;;;;;;;
2023/04/24 03:30:49;;;;;;;2.00;1.20;;;;;;;;;;474302;29;1984;-76
2023/04/24 03:32:26;;;;;;;;;;;;;;;;;;;;;
2023/04/24 03:34:40;;;;;;;3.20;1.60;;;;;;;;;;507244;27;20618;-76
2023/04/24 03:34:55;;;;;;;2.75;1.60;;;;;;;;;;527892;27;1229;-75
2023/04/24 03:35:11;;;;;;;2.57;1.50;;;;;;;;;;525904;28;1208;-76
2023/04/24 03:35:26;;;;;;;2.50;1.50;;;;;;;;;;523322;28;1295;-76
2023/04/24 03:35:41;;;;;;;2.53;1.55;;;;;;;;;;520436;28;1119;-75
2023/04/24 03:35:57;;;;;;;2.40;1.60;;;;;;;;;;521591;28;1259;-75
2023/04/24 03:36:12;;;;;;;1.97;1.50;;;;;;;;;;521611;28;1197;-75
2023/04/24 03:36:27;;;;;;;1.83;1.50;;;;;;;;;;521627;28;1169;-75
2023/04/24 03:36:42;;;;;;;2.47;1.60;;;;;;;;;;521861;28;1378;-75
2023/04/24 03:36:58;;;;;;;3.03;1.70;;;;;;;;;;521673;28;994;-76
2023/04/24 03:37:13;;;;;;;2.30;1.50;;;;;;;;;;521198;28;1324;-76
2023/04/24 03:37:28;;;;;;;1.83;1.60;;;;;;;;;;523466;28;1173;-76
2023/04/24 03:37:44;;;;;;;2.70;1.80;;;;;;;;;;522987;28;1350;-76
2023/04/24 03:37:59;;;;;;;2.60;1.60;;;;;;;;;;522029;28;1215;-76
2023/04/24 03:38:14;;;;;;;2.60;1.50;;;;;;;;;;521223;28;1539;-76
2023/04/24 03:38:30;;;;;;;2.83;1.50;;;;;;;;;;519908;28;1350;-75
2023/04/24 03:38:52;;;;;;;2.17;1.50;;;;;;;;;;515225;28;1200;-75
2023/04/24 03:40:33;;;;;;;;;;;;;;;;;;;;;
2023/04/24 03:47:12;;;;;;;;;;;;;;;;;;;;;
2023/04/24 03:48:02;;;;;;;2.35;1.90;;;;;;;;;;461371;29;1909;-78
2023/04/24 03:48:50;;;;;;;2.53;1.92;;;;;;;;;;460134;29;1346;-77
2023/04/24 03:49:11;;;;;;;2.25;1.67;;;;;;;;;;471047;29;1432;-77
2023/04/24 03:50:00;;;;;;;;;;;;;;;;;;;;;
2023/04/24 03:56:29;;;;;;;2.53;2.20;;;;;;;;;;457470;29;1186;-76
2023/04/24 04:00:09;;;;;;;3.75;2.35;;;;;;;;;;475515;29;1852;-77
2023/04/24 04:02:38;;;;;;;2.53;2.05;;;;;;;;;;471612;29;2510;-77
2023/04/24 04:07:53;;;;;;;;;;;;;;;;;;;;;
2023/04/24 04:14:55;;;;;;;3.25;2.60;;;;;;;;;;456561;30;1149;-78
2023/04/24 04:19:37;;;;;;;2.85;2.50;;;;;;;;;;459787;29;1201;-77
2023/04/24 04:21:03;;;;;;;3.40;2.55;;;;;;;;;;457554;29;1127;-77
2023/04/24 04:24:38;;;;;;;3.70;2.38;;;;;;;;;;455015;29;870;-77
2023/04/24 04:25:26;;;;;;;3.53;2.30;;;;;;;;;;460595;29;1240;-77
2023/04/24 04:26:12;;;;;;;3.30;2.45;;;;;;;;;;465940;29;1445;-77
2023/04/24 04:27:06;;;;;;;;;;;;;;;;;;;;;
2023/04/24 04:35:49;;;;;;;2.78;2.15;;;;;;;;;;455432;29;1955;-76
2023/04/24 04:37:27;;;;;;;;;;;;;;;;;;;;;
2023/04/24 04:38:59;;;;;;;;;;;;;;;;;;;;;
2023/04/24 04:39:04;;;;;;;4.18;2.13;;;;;;;;;;460246;29;1354;-77
2023/04/24 04:39:21;;;;;;;4.07;2.30;;;;;;;;;;457078;29;1386;-76
2023/04/24 04:39:40;;;;;;;2.60;2.20;;;;;;;;;;455949;29;1960;-76
2023/04/24 04:45:58;;;;;;;4.07;2.45;;;;;;;;;;461401;29;1372;-76
2023/04/24 04:46:20;;;;;;;3.05;2.30;;;;;;;;;;459702;29;1330;-76
2023/04/24 04:47:06;;;;;;;2.97;2.22;;;;;;;;;;454131;30;1325;-76
2023/04/24 04:47:50;;;;;;;3.17;2.43;;;;;;;;;;456574;30;1170;-76
2023/04/24 04:48:18;;;;;;;2.53;2.30;;;;;;;;;;454085;30;1144;-77
2023/04/24 04:49:14;;;;;;;;;;;;;;;;;;;;;
2023/04/24 04:50:10;;;;;;;3.70;2.30;;;;;;;;;;456374;30;1463;-76
2023/04/24 04:53:13;;;;;;;4.43;2.53;;;;;;;;;;460969;29;1805;-77
2023/04/24 04:53:54;;;;;;;;;;;;;;;;;;;;;
2023/04/24 04:58:16;;;;;;;2.80;2.50;;;;;;;;;;457965;30;1236;-76
2023/04/24 04:58:32;;;;;;;4.43;2.53;;;;;;;;;;457252;30;1389;-77
2023/04/24 04:59:03;;;;;;;3.10;2.40;;;;;;;;;;458757;30;1220;-76
2023/04/24 04:59:43;;;;;;;3.15;2.67;;;;;;;;;;456079;30;1093;-75
2023/04/24 05:00:00;;;;;;;3.22;2.40;;;;;;;;;;457116;30;1332;-77
2023/04/24 05:03:49;;;;;;;3.63;2.60;;;;;;;;;;462644;30;1267;-76